Meteo Giornale » Osservazioni meteo Colombia » Valledupar-Alfonso Lopez
ore: 14:00 - Osservazioni Meteo Valledupar-Alfonso Lopez
Lat. 10° 26' N Lon. 73° 15' W Alt. 138 metri s.l.m.
34 °C
Sereno
Temp. 24 Ore
24 °C
34 °C
Sud
18.5 Km/h
Dew point 23 °C
Umidità 52 %
Visibilità 12 Km
Il sole sorge alle ore 05:43
Il sole tramonta alle ore 18:02
| Data e Ora | Cielo e Fenomeni | T °C | DP °C | Um. % | Pres. hPa | Vis. km | Vento km/h | |
|---|---|---|---|---|---|---|---|---|
| Oggi h: 14:00 | Sereno | 34 | 23 | 52 | 1011 | 12 | S 18.5 | |
| Oggi h: 13:00 | Nuvoloso | 33 | 24 | 59 | 1012 | 10 | N 7.4 | |
| Oggi h: 12:00 | Sereno | 32 | 24 | 62 | 1013 | 12 | O 11.1 | |
| Oggi h: 11:00 | Nuvoloso | 32 | 24 | 62 | 1013 | 10 | SO 14.8 | |
| Oggi h: 10:00 | Sereno | 30 | 24 | 70 | 1013 | 12 | N 7.4 | |
| Oggi h: 09:00 | Sereno | 27 | 24 | 83 | 1013 | 11 | E/NE 13 | |
| Oggi h: 08:42 | Molto Nuvoloso | 27 | 24 | 83 | 1013 | 10 | NE 14.8 | |
| Oggi h: 08:00 | Molto Nuvoloso | 25 | 24 | 94 | 1013 | 10 | E/NE 11.1 | |
| Oggi h: 07:00 | Molto Nuvoloso | 25 | 24 | 94 | 1013 | 10 | E/NE 9.3 | |
| Oggi h: 06:00 | Sereno | 25 | 24 | 94 | 1014 | 11 | NE 9.3 | |
| Oggi h: 05:00 | Pioviggine | 24 | 24 | 100 | 1014 | 11 | N 5.5 | |
| Oggi h: 04:00 | Pioggia | 24 | 24 | 100 | 1014 | 11 | N 3.7 | |
| Oggi h: 03:00 | Sereno | 24 | 23 | 94 | 1014 | 11 | N 3.7 | |
| Oggi h: 01:00 | Pioggia | 24 | 22 | 88 | 1014 | 11 | NE 18.5 | |
| Oggi h: 00:00 | Pioggia | 24 | 21 | 83 | 1014 | 11 | E 13 | |
| Ieri h: 23:00 | Pioggia | 26 | 21 | 73 | 1015 | 10 | NE 20.3 | |
| Ieri h: 22:00 | Sereno | 29 | 22 | 66 | 1014 | 10 | E/NE 20.3 | |
| Ieri h: 21:00 | Sereno | 30 | 23 | 66 | 1013 | 10 | N 1.8 | |
| Ieri h: 20:00 | Nuvoloso | 31 | 23 | 62 | 1012 | 10 | N 5.5 | |
| Ieri h: 19:00 | Nuvoloso | 32 | 23 | 59 | 1011 | 10 | N 1.8 | |
| Ieri h: 18:00 | Nuvoloso | 33 | 23 | 55 | 1010 | 10 | N 5.5 | |
| Ieri h: 17:00 | Nuvoloso | 33 | 23 | 55 | 1010 | 10 | SO 9.3 | |
| Ieri h: 16:00 | Nuvoloso | 34 | 23 | 52 | 1009 | 10 | SO 11.1 | |
| Ieri h: 15:00 | Nuvoloso | 34 | 23 | 52 | 1010 | 10 | S/SO 13 | |



